Dades de l'estació automàtica Castellnou de Bages
Resum diari
21:30 TU| Temperatura mitjana | 13.7 °C | |
|---|---|---|
| Temperatura màxima | 21.3 °C | 11:24 TU |
| Temperatura mínima | 9.7 °C | 21:58 TU |
| Humitat relativa mitjana | 92% | |
| Precipitació acumulada | 10.1 mm | |
| Ratxa màxima del vent (10 m) | 31.3 km/h - 179º | 19:19 TU |
| Irradiació solar global | 10.1 MJ/m2 | |
El tram horari està expressat en Temps Universal (TU). Cal sumar una hora en horari d'hivern i dues en horari d'estiu per passar a l'hora oficial.
Castellnou de Bages
| Municipi | Castellnou de Bages |
|---|---|
| Comarca | Bages |
| Altitud | 507 m |
| Data alta | 22.01.1998 |
| Estat actual | Operativa |
| Període TU |
TM °C |
TX °C |
TN °C |
HRM % |
PPT mm |
VVM (10 m) km/h |
DVM (10 m) graus |
VVX (10 m) km/h |
RS W/m2 |
|---|---|---|---|---|---|---|---|---|---|
| 00:00 - 00:30 | 12.7 | 12.7 | 12.5 | 91 | 0.0 | 1.4 | 2 | 4.7 | 0 |
| 00:30 - 01:00 | 12.0 | 12.5 | 11.8 | 100 | 0.1 | 3.2 | 35 | 9.0 | 0 |
| 01:00 - 01:30 | 11.5 | 11.7 | 11.5 | 100 | 0.0 | 5.4 | 36 | 10.1 | 0 |
| 01:30 - 02:00 | 11.5 | 11.5 | 11.3 | 100 | 0.0 | 4.3 | 27 | 10.4 | 0 |
| 02:00 - 02:30 | 11.4 | 11.5 | 11.2 | 100 | 0.0 | 4.3 | 30 | 8.3 | 0 |
| 02:30 - 03:00 | 11.6 | 11.6 | 11.5 | 100 | 0.0 | 4.7 | 32 | 9.4 | 0 |
| 03:00 - 03:30 | 11.4 | 11.6 | 11.4 | 100 | 0.0 | 4.0 | 11 | 7.6 | 0 |
| 03:30 - 04:00 | 11.5 | 11.6 | 11.4 | 100 | 0.0 | 4.0 | 360 | 6.5 | 0 |
| 04:00 - 04:30 | 11.7 | 11.8 | 11.6 | 100 | 0.0 | 4.3 | 354 | 5.8 | 0 |
| 04:30 - 05:00 | 11.7 | 11.8 | 11.6 | 100 | 0.0 | 4.0 | 329 | 7.9 | 1 |
| 05:00 - 05:30 | 12.0 | 12.2 | 11.9 | 100 | 0.0 | 5.8 | 310 | 11.9 | 20 |
| 05:30 - 06:00 | 11.9 | 12.2 | 11.7 | 100 | 0.0 | 6.8 | 62 | 12.6 | 32 |
| 06:00 - 06:30 | 11.9 | 12.0 | 11.8 | 100 | 0.0 | 4.0 | 43 | 9.4 | 82 |
| 06:30 - 07:00 | 13.4 | 14.3 | 12.0 | 96 | 0.0 | 4.0 | 28 | 8.6 | 264 |
| 07:00 - 07:30 | (s/d) | (s/d) | (s/d) | (s/d) | (s/d) | (s/d) | (s/d) | (s/d) | (s/d) |
| 07:30 - 08:00 | 14.7 | 15.0 | 14.3 | 88 | 0.0 | 5.0 | 39 | 12.6 | 326 |
| 08:00 - 08:30 | 16.2 | 17.2 | 15.1 | 80 | 0.0 | 3.6 | 16 | 11.2 | 541 |
| 08:30 - 09:00 | 17.0 | 17.6 | 16.3 | 76 | 0.0 | 6.8 | 72 | 12.6 | 542 |
| 09:00 - 09:30 | 17.3 | 18.3 | 17.0 | 70 | 0.0 | 3.6 | 135 | 10.1 | 354 |
| 09:30 - 10:00 | 18.2 | 19.3 | 17.5 | 67 | 0.0 | 4.3 | 93 | 10.8 | 519 |
| 10:00 - 10:30 | 19.3 | 20.2 | 18.6 | 63 | 0.0 | 6.1 | 85 | 11.9 | 805 |
| 10:30 - 11:00 | 19.5 | 20.2 | 18.9 | 61 | 0.0 | 4.3 | 103 | 14.8 | 352 |
| 11:00 - 11:30 | 20.2 | 21.3 | 19.0 | 59 | 0.0 | 7.2 | 125 | 16.6 | 602 |
| 11:30 - 12:00 | 19.4 | 20.1 | 18.2 | 58 | 0.0 | 6.1 | 134 | 13.3 | 158 |
| 12:00 - 12:30 | 17.2 | 18.1 | 16.5 | 72 | 0.1 | 6.1 | 230 | 10.8 | 34 |
| 12:30 - 13:00 | 15.4 | 16.5 | 14.3 | 89 | 1.1 | 12.6 | 267 | 19.1 | 27 |
| 13:00 - 13:30 | 14.1 | 14.2 | 13.9 | 100 | 1.0 | 7.9 | 241 | 18.4 | 31 |
| 13:30 - 14:00 | 13.6 | 14.0 | 13.2 | 100 | 0.9 | 4.3 | 214 | 14.4 | 63 |
| 14:00 - 14:30 | 13.4 | 13.9 | 12.9 | 100 | 0.6 | 10.1 | 218 | 21.2 | 134 |
| 14:30 - 15:00 | 13.0 | 13.4 | 12.8 | 100 | 0.2 | 4.3 | 117 | 11.9 | 175 |
| 15:00 - 15:30 | 13.2 | 13.4 | 12.9 | 100 | 0.0 | 2.9 | 168 | 6.1 | 105 |
| 15:30 - 16:00 | 13.5 | 13.8 | 13.2 | 100 | 0.0 | 2.2 | 82 | 5.8 | 157 |
| 16:00 - 16:30 | 13.7 | 13.9 | 13.5 | 100 | 0.0 | 1.8 | 22 | 9.0 | 115 |
| 16:30 - 17:00 | 13.7 | 14.0 | 13.5 | 100 | 0.0 | 3.2 | 9 | 6.8 | 76 |
| 17:00 - 17:30 | 13.5 | 13.6 | 13.4 | 100 | 0.0 | 2.5 | 28 | 6.5 | 39 |
| 17:30 - 18:00 | 13.4 | 13.5 | 13.3 | 100 | 0.0 | 2.2 | 20 | 6.8 | 44 |
| 18:00 - 18:30 | 13.2 | 13.3 | 13.1 | 100 | 0.0 | 2.9 | 15 | 7.9 | 11 |
| 18:30 - 19:00 | 13.1 | 13.3 | 13.0 | 100 | 0.0 | 2.2 | 9 | 6.5 | 1 |
| 19:00 - 19:30 | 12.8 | 13.4 | 11.5 | 100 | 3.8 | 10.1 | 249 | 31.3 | 0 |
| 19:30 - 20:00 | 11.2 | 11.8 | 10.4 | 100 | 2.2 | 12.2 | 285 | 25.6 | 0 |
| 20:00 - 20:30 | 10.4 | 10.8 | 10.2 | 100 | 0.1 | 9.4 | 329 | 20.5 | 0 |
| 20:30 - 21:00 | 10.5 | 10.7 | 10.4 | 100 | 0.0 | 5.0 | 167 | 17.3 | 0 |
| 21:00 - 21:30 | 10.3 | 10.5 | 10.1 | 100 | 0.0 | 5.4 | 232 | 10.4 | 0 |
| 21:30 - 22:00 | 10.0 | 10.2 | 9.7 | 100 | 0.0 | 4.0 | 246 | 6.8 | 0 |
| 22:00 - 22:30 | (s/d) | (s/d) | (s/d) | (s/d) | (s/d) | (s/d) | (s/d) | (s/d) | (s/d) |
Les dades en taronja només han passat un control de qualitat automàtic. Resta pendent la seva validació definitiva.